»·PEaware :: N525SA KACV-KFAT

N525SA :: KACV-KFAT

FLIGHT INFORMATION

Flight Status: Arrived
Operator: Privately registered:
United States
More flights under this callsign
Pilot: Utku A. (15598)
Aircraft: SOCATA TBM-900
(TBM9)
More flights by this aircraft type
Origin: KACV Arcata
United States
Destination: KFAT Fresno Yosemite Intl
United States
More flights between these airports :: More routes between these airports
Route: HOCUT5 FOT V195 JINGO T261 GRIDD V23 CZQ
File this flight plan on PilotEdge
Remarks:
Altitude:
(Current/Filed)
24,000ft
Speed:
(Current/Filed)
290kts
Departed: 27-Oct-18 11:46 AM
Arrived: 27-Oct-18 01:15 PM
Distance/Time
Traveled:
324nm/1:29
Distance/Time
To Go:
Arrived

Flight Plot

Page will automatically refresh every two minutes.

Flight plan parsing failed; only flown route is shown


Map Options




Map Legend


Flown Route
Filed Route
Departure Airport
Arrival Airport
Navaid (VOR, NDB)
Fix

Horizontal Profiles

Position Reports

Time Latitude Longitude Heading Altitude Ground
Speed
27-Oct-18 11:44 40.983812 -124.113349 334 225ft 0kts
27-Oct-18 11:45 40.983812 -124.113349 334 225ft 0kts
27-Oct-18 11:46 40.983812 -124.113349 334 225ft 0kts
27-Oct-18 11:47 40.985079 -124.113076 105 225ft 9kts
27-Oct-18 11:48 40.967587 -124.101270 155 729ft 131kts
27-Oct-18 11:49 40.954899 -124.131460 277 2906ft 141kts
27-Oct-18 11:50 40.968178 -124.179029 289 5008ft 142kts
27-Oct-18 11:51 40.974335 -124.227740 253 7371ft 132kts
27-Oct-18 11:52 40.973860 -124.276991 262 9554ft 135kts
27-Oct-18 11:53 40.972309 -124.325268 253 11631ft 130kts
27-Oct-18 11:54 40.939624 -124.328600 174 13446ft 138kts
27-Oct-18 11:55 40.902180 -124.315894 175 15135ft 141kts
27-Oct-18 11:56 40.864217 -124.302568 176 16681ft 143kts
27-Oct-18 11:57 40.825669 -124.288959 177 18102ft 145kts
27-Oct-18 11:58 40.786587 -124.275158 178 19406ft 147kts
27-Oct-18 11:59 40.746875 -124.261148 179 20596ft 149kts
27-Oct-18 12:00 40.705871 -124.246662 180 22548ft 153kts
27-Oct-18 12:01 40.667708 -124.219723 126 24185ft 214kts
27-Oct-18 12:02 40.642642 -124.131402 119 24181ft 289kts
27-Oct-18 12:03 40.613637 -124.026692 118 24163ft 316kts
27-Oct-18 12:04 40.582796 -123.916626 118 24159ft 325kts
27-Oct-18 12:05 40.551205 -123.804059 118 24158ft 329kts
27-Oct-18 12:06 40.519389 -123.691095 118 24158ft 330kts
27-Oct-18 12:07 40.487437 -123.577927 118 24159ft 331kts
27-Oct-18 12:08 40.455325 -123.464541 118 24159ft 331kts
27-Oct-18 12:09 40.423207 -123.351572 118 24160ft 331kts
27-Oct-18 12:10 40.391817 -123.241665 119 24151ft 330kts
27-Oct-18 12:11 40.359589 -123.129226 118 24153ft 329kts
27-Oct-18 12:12 40.327817 -123.017247 118 24153ft 330kts
27-Oct-18 12:13 40.295280 -122.904793 117 24154ft 331kts
27-Oct-18 12:14 40.264845 -122.799995 117 24143ft 332kts
27-Oct-18 12:15 40.231867 -122.686986 117 24126ft 332kts
27-Oct-18 12:16 40.198722 -122.573910 117 24122ft 332kts
27-Oct-18 12:17 40.165667 -122.461620 117 24129ft 332kts
27-Oct-18 12:18 40.132372 -122.349022 118 24131ft 332kts
27-Oct-18 12:19 40.095730 -122.243000 147 24085ft 309kts
27-Oct-18 12:20 40.022208 -122.196265 166 24123ft 292kts
27-Oct-18 12:21 39.947251 -122.156766 167 24116ft 292kts
27-Oct-18 12:22 39.874807 -122.118872 167 24109ft 292kts
27-Oct-18 12:23 39.799609 -122.079638 167 24102ft 293kts
27-Oct-18 12:24 39.724631 -122.040611 167 24102ft 293kts
27-Oct-18 12:25 39.648878 -122.001268 167 24102ft 293kts
27-Oct-18 12:26 39.573440 -121.962187 167 24102ft 293kts
27-Oct-18 12:27 39.497542 -121.922956 167 24102ft 293kts
27-Oct-18 12:28 39.421913 -121.883956 167 24101ft 293kts
27-Oct-18 12:29 39.346295 -121.845100 167 24101ft 293kts
27-Oct-18 12:30 39.269499 -121.816618 174 24101ft 287kts
27-Oct-18 12:31 39.192097 -121.791478 174 24101ft 287kts
27-Oct-18 12:32 39.122805 -121.769050 174 24100ft 287kts
27-Oct-18 12:33 39.045252 -121.744008 174 24101ft 287kts
27-Oct-18 12:34 38.968569 -121.719312 173 24100ft 286kts
27-Oct-18 12:35 38.893227 -121.695048 172 24102ft 285kts
27-Oct-18 12:36 38.826787 -121.673700 171 24105ft 285kts
27-Oct-18 12:37 38.750509 -121.649302 171 24105ft 285kts
27-Oct-18 12:38 38.673660 -121.624782 171 24104ft 285kts
27-Oct-18 12:39 38.597014 -121.600349 172 24104ft 285kts
27-Oct-18 12:40 38.521332 -121.576278 172 24104ft 285kts
27-Oct-18 12:41 38.444518 -121.548137 149 24075ft 300kts
27-Oct-18 12:42 38.387654 -121.467748 137 24103ft 307kts
27-Oct-18 12:43 38.332154 -121.385100 137 24095ft 307kts
27-Oct-18 12:44 38.278336 -121.305091 137 24088ft 307kts
27-Oct-18 12:45 38.223262 -121.223393 137 24094ft 306kts
27-Oct-18 12:46 38.167831 -121.141399 137 24098ft 306kts
27-Oct-18 12:47 38.113993 -121.061939 136 24098ft 306kts
27-Oct-18 12:48 38.054052 -120.983057 146 24103ft 300kts
27-Oct-18 12:49 37.989052 -120.916758 146 24095ft 301kts
27-Oct-18 12:50 37.923654 -120.850326 146 24087ft 301kts
27-Oct-18 12:51 37.861176 -120.787015 146 24083ft 301kts
27-Oct-18 12:52 37.795670 -120.720797 146 24077ft 301kts
27-Oct-18 12:53 37.730531 -120.655104 146 24077ft 301kts
27-Oct-18 12:54 37.665101 -120.589276 146 24084ft 302kts
27-Oct-18 12:55 37.599471 -120.523379 146 24097ft 302kts
27-Oct-18 12:56 37.533915 -120.457708 146 23428ft 298kts
27-Oct-18 12:57 37.471106 -120.394980 146 22930ft 287kts
27-Oct-18 12:58 37.411220 -120.335280 147 22450ft 282kts
27-Oct-18 12:59 37.349930 -120.274221 146 21937ft 281kts
27-Oct-18 13:00 37.287644 -120.212392 146 21009ft 290kts
27-Oct-18 13:02 37.225021 -120.150372 145 19446ft 278kts
27-Oct-18 13:03 37.167856 -120.093831 145 17399ft 249kts
27-Oct-18 13:03 37.124031 -120.050591 145 15708ft 236kts
27-Oct-18 13:05 37.065486 -119.992907 144 13358ft 227kts
27-Oct-18 13:06 37.016566 -119.944791 144 11358ft 224kts
27-Oct-18 13:07 36.967807 -119.896932 144 9357ft 223kts
27-Oct-18 13:07 36.930294 -119.854367 131 7721ft 224kts
27-Oct-18 13:08 36.891108 -119.798699 131 6484ft 223kts
27-Oct-18 13:09 36.848393 -119.739213 131 5757ft 240kts
27-Oct-18 13:10 36.804228 -119.676211 131 4782ft 242kts
27-Oct-18 13:11 36.761688 -119.614384 131 3764ft 213kts
27-Oct-18 13:12 36.716351 -119.595168 214 2385ft 172kts
27-Oct-18 13:13 36.695053 -119.633594 281 2390ft 138kts
27-Oct-18 13:14 36.721286 -119.661777 337 2151ft 120kts
27-Oct-18 13:15 36.749752 -119.678111 323 1222ft 119kts
27-Oct-18 13:16 36.769101 -119.708007 304 404ft 100kts
27-Oct-18 13:17 36.779608 -119.726338 305 331ft 35kts
27-Oct-18 13:18 36.780067 -119.729663 121 328ft 5kts
27-Oct-18 13:19 36.778046 -119.729899 215 328ft 3kts
27-Oct-18 13:20 36.777917 -119.730013 217 328ft 0kts
27-Oct-18 13:21 36.777917 -119.730013 217 328ft 0kts
27-Oct-18 13:22 36.777917 -119.730013 217 328ft 0kts

Navigation Log

Ident Type
Flight plan parsing failed, navigation log unavailable